Flight Track Log - Related Links

Times and Time Zones

All times are in EDT time to prevent confusion due to time zone crossing. See the UCA3598 flight status page for this flight to view local times or setup timezone preferences in your user account.


Time Position Orientation Groundspeed Altitude Reporting Facility
EDT Latitude Longitude Course Direction KTS MPH feet Rate Location/Type
Mon 10:20:03 PM 38.9500 -77.5333 North 151 174 2,800  Level Potomac TRACON
Mon 10:21:03 PM 38.9833 -77.5500 339° North 185 213 4,500 1,950 Climbing Potomac TRACON
Mon 10:22:03 PM 39.0333 -77.5500 360° North 180 207 6,700 1,598 Climbing Potomac TRACON
Mon 10:23:00 PM 39.1720 -77.4500 North  Level FlightAware Approximate
Mon 10:24:00 PM 39.2317 -77.4500 North  Level FlightAware Approximate
Mon 10:24:22 PM 39.1597 -77.5264 North 213 245 9,800  Level Washington Center
Mon 10:25:00 PM 39.2988 -77.4500 North  Level FlightAware Approximate
Mon 10:25:22 PM 39.2258 -77.5169 North 238 274 10,900  Level Washington Center
Mon 10:26:27 PM 39.3131 -77.5033 North 257 296 12,400 1,344 Climbing Washington Center
Mon 10:27:27 PM 39.3850 -77.4931 North 258 297 13,700 1,150 Climbing Washington Center
Mon 10:28:27 PM 39.4589 -77.4814 North 262 302 14,700 968 Climbing Washington Center
Mon 10:29:31 PM 39.5331 -77.4714 North 265 305 15,700 624 Climbing Washington Center
Mon 10:30:32 PM 39.6081 -77.4583 North 270 311 16,000 541 Climbing Washington Center
Mon 10:31:33 PM 39.6867 -77.4528 North 281 323 16,800 787 Climbing Washington Center
Mon 10:32:34 PM 39.7569 -77.4539 359° North 258 297 17,600 720 Climbing Washington Center
Mon 10:33:38 PM 39.8408 -77.4311 12° North 270 311 18,300 574 Climbing Washington Center
Mon 10:34:50 PM 39.9222 -77.3786 26° Northeast 266 306 18,900 591 Climbing New York Center
Mon 10:35:50 PM 39.9931 -77.3419 22° Northeast 271 312 19,600 700 Climbing New York Center
Mon 10:36:50 PM 40.0622 -77.2994 25° Northeast 271 312 20,300 600 Climbing New York Center
Mon 10:37:50 PM 40.1158 -77.2694 23° Northeast 265 305 20,800 350 Climbing New York Center
Mon 10:38:50 PM 40.1914 -77.2219 26° Northeast 265 305 21,000 100 Climbing New York Center
Mon 10:39:50 PM 40.2650 -77.1744 26° Northeast 270 311 21,000  Level New York Center
Mon 10:40:50 PM 40.3444 -77.1300 23° Northeast 288 331 21,000  Level New York Center
Mon 10:41:50 PM 40.4219 -77.0825 25° Northeast 299 344 21,000  Level New York Center
Mon 10:42:50 PM 40.5017 -77.0353 24° Northeast 304 350 21,000 -300 Level New York Center
Mon 10:43:50 PM 40.5833 -76.9881 24° Northeast 304 350 20,400 -800 Descending New York Center
Mon 10:44:50 PM 40.6675 -76.9356 25° Northeast 309 356 19,400 -1,050 Descending New York Center
Mon 10:45:50 PM 40.7600 -76.8808 24° Northeast 328 377 18,300 -1,150 Descending New York Center
Mon 10:46:50 PM 40.8331 -76.8353 25° Northeast 328 377 17,100 -700 Descending New York Center
Mon 10:47:50 PM 40.9169 -76.7878 23° Northeast 328 377 16,900 -100 Descending New York Center
Mon 10:48:50 PM 40.9964 -76.7369 26° Northeast 322 371 16,900  Level New York Center
Mon 10:49:50 PM 41.0719 -76.6886 26° Northeast 315 362 16,900  Level New York Center
Mon 10:50:50 PM 41.1514 -76.6403 25° Northeast 308 354 16,900 50 Level New York Center
Mon 10:51:50 PM 41.2375 -76.5844 26° Northeast 308 354 17,000  Climbing New York Center
Mon 10:52:50 PM 41.3147 -76.5358 25° Northeast 308 354 16,900 -50 Descending New York Center
Mon 10:53:51 PM 41.3942 -76.4900 23° Northeast 308 354 16,900 -50 Level New York Center
Mon 10:54:50 PM 41.4650 -76.4461 25° Northeast 308 354 16,800 -756 Descending New York Center
Mon 10:55:50 PM 41.5464 -76.3950 25° Northeast 313 360 15,400 -1,500 Descending New York Center
Mon 10:56:50 PM 41.6386 -76.3389 24° Northeast 318 366 13,800 -1,550 Descending New York Center
Mon 10:57:50 PM 41.7200 -76.2900 24° Northeast 324 373 12,300 -1,450 Descending New York Center
Mon 10:58:50 PM 41.7975 -76.2381 27° Northeast 324 373 10,900 -1,450 Descending New York Center
Mon 10:59:50 PM 41.8703 -76.1939 24° Northeast 319 367 9,400 -1,450 Descending New York Center
Mon 11:00:50 PM 41.9497 -76.1444 25° Northeast 314 361 8,000 -1,550 Descending New York Center
Mon 11:01:50 PM 42.0331 -76.0928 25° Northeast 308 354 6,300 -1,550 Descending New York Center
Mon 11:02:50 PM 42.1097 -76.0542 20° North 302 348 4,900 -1,150 Descending New York Center
Mon 11:03:50 PM 42.1714 -76.0731 347° North 263 303 4,000 -800 Descending New York Center
Mon 11:04:50 PM 42.2108 -76.0764 356° North 202 232 3,300 -650 Descending New York Center
Mon 11:05:50 PM 42.2375 -76.0364 48° Northeast 147 169 2,700 -600 Descending New York Center
Mon 11:06:50 PM 42.2369 -76.0000 91° East 104 120 2,100 7,150 Descending New York Center
Mon 11:07:50 PM 42.2492 -75.9617 67° East 104 120 17,000 7,450 Climbing New York Center
Mon 11:08:50 PM 42.2611 -75.9292 64° Northeast 104 120 17,000  Level New York Center

Login

Don't have an account? Register now (free) for customized features, flight alerts, and more!